createdAt,value
2019-02-08T00:00:12.301Z,80.62
2019-02-08T00:02:58.421Z,80.73
2019-02-08T00:05:44.371Z,80.62
2019-02-08T00:08:32.816Z,80.59
2019-02-08T00:11:18.724Z,80.61
2019-02-08T00:14:04.908Z,80.60
2019-02-08T00:16:51.384Z,80.39
2019-02-08T00:20:17.539Z,80.36
2019-02-08T00:25:52.049Z,80.31
2019-02-08T00:28:38.145Z,80.43
2019-02-08T00:31:25.880Z,80.31
2019-02-08T00:34:12.073Z,80.11
2019-02-08T00:36:57.946Z,79.99
2019-02-08T00:39:43.792Z,79.71
2019-02-08T00:42:31.153Z,79.92
2019-02-08T00:45:17.630Z,79.93
2019-02-08T00:48:03.718Z,80.01
2019-02-08T00:50:49.810Z,79.96
2019-02-08T00:53:36.278Z,80.42
2019-02-08T00:56:22.106Z,80.29
2019-02-08T00:59:08.786Z,80.22
2019-02-08T01:01:55.050Z,80.22
2019-02-08T01:04:41.078Z,80.75
2019-02-08T01:07:27.625Z,80.76
2019-02-08T01:10:17.744Z,80.77
2019-02-08T01:13:04.450Z,81.03
2019-02-08T01:15:50.613Z,81.41
2019-02-08T01:18:36.826Z,81.49
2019-02-08T01:21:23.277Z,81.75
2019-02-08T01:24:10.962Z,81.76
2019-02-08T01:26:58.155Z,82.05
2019-02-08T01:29:44.433Z,82.22
2019-02-08T01:32:31.231Z,82.14
2019-02-08T01:35:17.601Z,82.32
2019-02-08T01:38:04.392Z,82.78
2019-02-08T01:40:50.583Z,82.58
2019-02-08T01:43:36.543Z,82.55
2019-02-08T01:46:22.495Z,82.56
2019-02-08T01:49:08.539Z,82.31
2019-02-08T01:51:54.627Z,82.14
2019-02-08T01:54:40.519Z,81.86
2019-02-08T01:57:26.701Z,81.60
2019-02-08T02:00:39.236Z,81.08
2019-02-08T02:03:25.471Z,80.84
2019-02-08T02:06:12.103Z,80.34
2019-02-08T02:08:57.869Z,80.38
2019-02-08T02:11:44.009Z,80.13
2019-02-08T02:14:30.332Z,80.18
2019-02-08T02:17:16.374Z,80.27
2019-02-08T02:20:04.493Z,80.54
2019-02-08T02:22:50.933Z,80.62
2019-02-08T02:25:37.030Z,80.60
2019-02-08T02:28:23.229Z,80.64
2019-02-08T02:31:09.167Z,80.83
2019-02-08T02:33:55.279Z,80.81
2019-02-08T02:36:41.041Z,80.64
2019-02-08T02:39:27.048Z,80.27
2019-02-08T02:42:13.032Z,80.50
2019-02-08T02:44:59.137Z,80.54
2019-02-08T02:47:44.967Z,80.46
2019-02-08T02:50:31.199Z,80.64
2019-02-08T02:53:16.991Z,80.75
2019-02-08T02:56:03.479Z,80.76
2019-02-08T02:58:49.812Z,80.99
2019-02-08T03:01:35.852Z,80.98
2019-02-08T03:04:22.101Z,81.12
2019-02-08T03:07:08.152Z,81.25
2019-02-08T03:09:54.099Z,81.45
2019-02-08T03:12:40.694Z,81.60
2019-02-08T03:15:26.799Z,81.88
2019-02-08T03:18:12.979Z,81.79
2019-02-08T03:20:59.208Z,82.12
2019-02-08T03:23:45.272Z,82.10
2019-02-08T03:26:31.274Z,82.11
2019-02-08T03:29:17.553Z,82.22
2019-02-08T03:32:03.722Z,82.09
2019-02-08T03:34:49.787Z,82.11
2019-02-08T03:37:35.988Z,82.11
2019-02-08T03:40:23.584Z,82.17
2019-02-08T03:43:10.116Z,82.07
2019-02-08T03:45:56.702Z,82.06
2019-02-08T03:48:42.476Z,81.86
2019-02-08T03:51:28.564Z,82.06
2019-02-08T03:54:20.991Z,82.33
2019-02-08T03:57:02.408Z,83.17
2019-02-08T03:59:48.425Z,84.08
2019-02-08T04:02:34.524Z,84.40
2019-02-08T04:05:20.900Z,84.57
2019-02-08T04:08:06.941Z,84.54
2019-02-08T04:10:53.284Z,84.82
2019-02-08T04:13:39.305Z,84.69
2019-02-08T04:16:25.137Z,85.25
2019-02-08T04:19:14.172Z,85.81
2019-02-08T04:21:59.945Z,86.03
2019-02-08T04:24:45.951Z,86.01
2019-02-08T04:27:31.932Z,86.38
2019-02-08T04:30:25.884Z,86.22
2019-02-08T04:33:11.815Z,86.30
2019-02-08T04:35:58.031Z,86.41
2019-02-08T04:38:44.058Z,86.59
2019-02-08T04:41:30.113Z,86.71
2019-02-08T04:44:16.088Z,86.73
2019-02-08T04:47:01.893Z,86.46
2019-02-08T04:49:47.867Z,86.05
2019-02-08T04:52:34.232Z,85.78
2019-02-08T04:55:20.587Z,85.83
2019-02-08T04:58:06.884Z,85.34
2019-02-08T05:00:53.026Z,85.20
2019-02-08T05:03:38.842Z,85.32
2019-02-08T05:06:24.828Z,86.15
2019-02-08T05:09:11.088Z,86.65
2019-02-08T05:11:59.890Z,86.15
2019-02-08T05:14:46.015Z,86.45
2019-02-08T05:17:32.045Z,86.27
2019-02-08T05:20:19.756Z,86.08
2019-02-08T05:23:05.536Z,86.06
2019-02-08T05:25:51.838Z,86.34
2019-02-08T05:28:37.923Z,86.15
2019-02-08T05:31:23.980Z,86.20
2019-02-08T05:34:10.037Z,86.40
2019-02-08T05:36:57.537Z,86.26
2019-02-08T05:39:43.512Z,86.16
2019-02-08T05:42:29.904Z,86.24
2019-02-08T05:45:16.561Z,86.18
2019-02-08T05:48:02.942Z,86.47
2019-02-08T05:50:48.848Z,86.15
2019-02-08T05:53:35.006Z,86.17
2019-02-08T05:56:20.799Z,86.12
2019-02-08T05:59:06.965Z,86.88
2019-02-08T06:01:52.999Z,87.94
2019-02-08T06:04:39.753Z,88.86
2019-02-08T06:07:25.858Z,89.50
2019-02-08T06:10:12.314Z,90.27
2019-02-08T06:12:58.390Z,90.57
2019-02-08T06:15:45.045Z,91.20
2019-02-08T06:18:31.389Z,91.46
2019-02-08T06:21:17.639Z,91.13
2019-02-08T06:24:04.454Z,91.29
2019-02-08T06:26:52.716Z,91.31
2019-02-08T06:29:38.894Z,90.82
2019-02-08T06:32:25.231Z,90.31
2019-02-08T06:35:11.821Z,90.11
2019-02-08T06:37:58.066Z,89.43
2019-02-08T06:40:46.026Z,88.76
2019-02-08T06:43:31.950Z,88.23
2019-02-08T06:46:18.046Z,88.42
2019-02-08T06:49:07.711Z,87.79
2019-02-08T06:51:54.181Z,87.87
2019-02-08T06:54:42.858Z,87.55
2019-02-08T06:57:34.390Z,87.17
2019-02-08T07:00:27.982Z,86.72
2019-02-08T07:10:27.486Z,85.89
2019-02-08T07:13:28.770Z,85.46
2019-02-08T07:16:34.701Z,85.33
2019-02-08T07:19:49.493Z,85.34
2019-02-08T07:22:57.472Z,84.78
2019-02-08T07:25:54.550Z,84.86
2019-02-08T07:28:58.745Z,84.77
2019-02-08T07:32:00.538Z,84.87
2019-02-08T07:35:05.686Z,84.72
2019-02-08T07:38:23.417Z,85.09
2019-02-08T07:41:33.600Z,85.36
2019-02-08T07:44:52.122Z,85.02
2019-02-08T07:47:49.749Z,85.28
2019-02-08T07:50:57.325Z,85.56
2019-02-08T07:54:11.685Z,85.21
2019-02-08T07:57:15.332Z,84.99
2019-02-08T08:00:20.528Z,85.49
2019-02-08T08:03:24.355Z,85.41
2019-02-08T08:06:28.487Z,84.84
2019-02-08T08:09:36.862Z,84.66
2019-02-08T08:12:33.547Z,83.89
2019-02-08T08:15:43.745Z,83.33
2019-02-08T08:18:52.505Z,83.13
2019-02-08T08:21:49.507Z,82.95
2019-02-08T08:24:53.531Z,82.56
2019-02-08T08:28:01.475Z,83.12
2019-02-08T08:31:01.989Z,82.97
2019-02-08T08:34:24.682Z,81.89
2019-02-08T08:37:24.767Z,80.94
2019-02-08T08:40:57.896Z,80.70
2019-02-08T08:44:16.201Z,79.56
2019-02-08T08:47:44.498Z,79.17
2019-02-08T08:50:56.474Z,78.66
2019-02-08T08:54:30.027Z,78.74
2019-02-08T08:57:44.239Z,78.33
2019-02-08T09:01:08.085Z,78.99
2019-02-08T09:04:31.280Z,77.84
2019-02-08T09:08:16.775Z,78.80
2019-02-08T09:11:37.879Z,78.96
2019-02-08T09:14:49.907Z,79.50
2019-02-08T09:18:13.819Z,78.76
2019-02-08T09:21:37.047Z,78.36
2019-02-08T09:24:43.318Z,77.94
2019-02-08T09:28:09.963Z,78.11
2019-02-08T09:31:41.669Z,79.74
2019-02-08T09:35:05.704Z,79.55
2019-02-08T09:38:26.202Z,78.64
2019-02-08T09:41:52.036Z,78.83
2019-02-08T09:45:16.301Z,78.49
2019-02-08T09:48:38.303Z,78.72
2019-02-08T09:51:52.697Z,78.09
2019-02-08T09:55:33.599Z,78.43
2019-02-08T09:58:49.507Z,78.75
2019-02-08T10:01:54.149Z,78.44
2019-02-08T10:05:26.334Z,77.75
2019-02-08T10:08:36.506Z,78.00
2019-02-08T10:12:02.977Z,77.31
2019-02-08T10:15:26.535Z,77.71
2019-02-08T10:19:03.201Z,77.11
2019-02-08T10:22:55.263Z,77.26
2019-02-08T10:26:30.547Z,77.43
2019-02-08T10:30:03.594Z,77.64
2019-02-08T10:33:32.419Z,77.39
2019-02-08T10:37:00.989Z,77.44
2019-02-08T10:40:28.807Z,77.17
2019-02-08T10:44:23.708Z,77.62
2019-02-08T10:47:54.720Z,77.48
2019-02-08T10:51:06.987Z,76.85
2019-02-08T10:54:36.756Z,77.07
2019-02-08T10:57:59.636Z,76.85
2019-02-08T11:01:28.135Z,77.17
2019-02-08T11:04:52.627Z,76.97
2019-02-08T11:08:33.415Z,76.92
2019-02-08T11:12:11.492Z,76.84
2019-02-08T11:15:50.753Z,76.92
2019-02-08T11:19:17.708Z,76.55
2019-02-08T11:22:03.648Z,76.87
2019-02-08T11:24:49.243Z,77.14
2019-02-08T11:27:34.629Z,77.12
2019-02-08T11:30:20.306Z,76.64
2019-02-08T11:33:08.799Z,76.76
2019-02-08T11:35:56.688Z,76.51
2019-02-08T11:38:42.433Z,76.65
2019-02-08T11:41:28.451Z,76.26
2019-02-08T11:44:14.488Z,76.17
2019-02-08T11:46:59.831Z,76.05
2019-02-08T11:49:45.518Z,75.82
2019-02-08T11:52:31.036Z,76.06
2019-02-08T11:55:16.568Z,75.78
2019-02-08T11:58:02.345Z,75.85
2019-02-08T12:00:50.945Z,75.24
2019-02-08T12:03:36.809Z,75.34
2019-02-08T12:06:24.106Z,74.86
2019-02-08T12:09:18.270Z,75.01
2019-02-08T12:12:06.497Z,75.05
2019-02-08T12:14:52.424Z,74.97
2019-02-08T12:17:37.857Z,74.48
2019-02-08T12:22:59.809Z,74.82
2019-02-08T12:25:48.877Z,75.33
2019-02-08T12:28:34.812Z,75.24
2019-02-08T12:31:21.949Z,75.27
2019-02-08T12:34:08.341Z,75.22
2019-02-08T12:36:55.317Z,74.88
2019-02-08T12:39:41.801Z,75.05
2019-02-08T12:42:27.506Z,74.65
2019-02-08T12:45:13.912Z,74.80
2019-02-08T12:48:00.028Z,74.66
2019-02-08T12:50:45.769Z,74.93
2019-02-08T12:53:31.529Z,75.07
2019-02-08T12:56:17.490Z,74.63
2019-02-08T12:59:03.749Z,74.67
2019-02-08T13:01:49.425Z,74.42
2019-02-08T13:04:35.968Z,74.31
2019-02-08T13:07:22.345Z,74.13
2019-02-08T13:10:10.945Z,74.46
2019-02-08T13:12:56.941Z,74.67
2019-02-08T13:15:42.557Z,74.33
2019-02-08T13:18:28.807Z,74.52
2019-02-08T13:21:14.533Z,74.21
2019-02-08T13:24:01.345Z,74.30
2019-02-08T13:26:52.766Z,74.29
2019-02-08T13:29:34.832Z,74.44
2019-02-08T13:32:20.357Z,74.50
2019-02-08T13:35:06.570Z,74.57
2019-02-08T13:37:52.237Z,74.41
2019-02-08T13:40:37.789Z,74.54
2019-02-08T13:43:23.828Z,74.40
2019-02-08T13:46:09.613Z,74.56
2019-02-08T13:48:55.108Z,74.67
2019-02-08T13:51:41.066Z,75.11
2019-02-08T13:54:29.865Z,74.65
2019-02-08T13:57:15.669Z,75.04
2019-02-08T14:00:02.160Z,74.68
2019-02-08T14:02:48.209Z,74.84
2019-02-08T14:05:34.562Z,75.08
2019-02-08T14:08:22.069Z,74.86
2019-02-08T14:11:07.765Z,75.20
2019-02-08T14:13:54.537Z,75.06
2019-02-08T14:16:40.852Z,74.88
2019-02-08T14:19:26.963Z,74.88
2019-02-08T14:22:12.486Z,74.89
2019-02-08T14:24:58.750Z,74.63
2019-02-08T14:27:44.833Z,74.79
2019-02-08T14:30:34.023Z,74.63
2019-02-08T14:33:21.286Z,74.78
2019-02-08T14:36:06.862Z,74.94
2019-02-08T14:38:52.529Z,74.97
2019-02-08T14:41:38.621Z,75.20
2019-02-08T14:44:24.221Z,75.17
2019-02-08T14:47:10.053Z,75.32
2019-02-08T14:49:57.437Z,75.14
2019-02-08T14:52:43.285Z,75.31
2019-02-08T14:55:28.943Z,75.43
2019-02-08T14:58:16.776Z,75.68
2019-02-08T15:01:03.053Z,75.73
2019-02-08T15:03:48.892Z,75.68
2019-02-08T15:06:35.353Z,75.73
2019-02-08T15:09:21.225Z,76.15
2019-02-08T15:12:06.865Z,76.21
2019-02-08T15:14:53.077Z,76.36
2019-02-08T15:17:39.607Z,76.44
2019-02-08T15:20:28.277Z,76.52
2019-02-08T15:23:15.261Z,76.69
2019-02-08T15:26:02.406Z,76.52
2019-02-08T15:28:47.777Z,76.74
2019-02-08T15:31:33.749Z,76.92
2019-02-08T15:34:19.402Z,76.97
2019-02-08T15:37:05.109Z,77.28
2019-02-08T15:39:51.071Z,77.09
2019-02-08T15:42:36.768Z,77.01
2019-02-08T15:45:22.409Z,77.49
2019-02-08T15:48:08.714Z,77.32
2019-02-08T15:50:54.700Z,77.26
2019-02-08T15:53:40.585Z,77.38
2019-02-08T15:56:27.054Z,77.47
2019-02-08T15:59:12.777Z,77.18
2019-02-08T16:01:58.949Z,77.34
2019-02-08T16:04:45.249Z,77.09
2019-02-08T16:07:31.222Z,77.33
2019-02-08T16:10:17.330Z,77.47
2019-02-08T16:13:03.895Z,77.08
2019-02-08T16:15:49.934Z,77.05
2019-02-08T16:18:35.946Z,77.10
2019-02-08T16:21:22.502Z,77.15
2019-02-08T16:24:08.027Z,76.85
2019-02-08T16:26:55.097Z,76.70
2019-02-08T16:29:46.048Z,76.90
2019-02-08T16:32:31.717Z,76.49
2019-02-08T16:35:19.853Z,76.35
2019-02-08T16:38:06.753Z,76.51
2019-02-08T16:40:52.806Z,76.32
2019-02-08T16:43:38.967Z,75.62
2019-02-08T16:46:25.055Z,75.88
2019-02-08T16:49:10.794Z,75.78
2019-02-08T16:51:56.532Z,75.68
2019-02-08T16:54:42.614Z,75.11
2019-02-08T16:57:28.406Z,74.96
2019-02-08T17:00:21.292Z,74.85
2019-02-08T17:03:09.605Z,74.91
2019-02-08T17:05:55.053Z,74.94
2019-02-08T17:08:41.036Z,74.86
2019-02-08T17:11:27.713Z,75.10
2019-02-08T17:14:13.795Z,74.97
2019-02-08T17:17:00.376Z,74.36
2019-02-08T17:19:46.484Z,74.35
2019-02-08T17:22:32.520Z,74.64
2019-02-08T17:25:20.167Z,74.41
2019-02-08T17:28:08.923Z,74.34
2019-02-08T17:30:56.290Z,74.77
2019-02-08T17:33:41.964Z,74.50
2019-02-08T17:36:27.914Z,74.45
2019-02-08T17:39:14.808Z,74.37
2019-02-08T17:42:00.774Z,74.19
2019-02-08T17:44:46.901Z,74.52
2019-02-08T17:47:33.529Z,74.46
2019-02-08T17:50:21.426Z,74.36
2019-02-08T17:53:07.533Z,74.73
2019-02-08T17:55:53.251Z,74.89
2019-02-08T17:58:38.830Z,74.68
2019-02-08T18:01:25.820Z,74.75
2019-02-08T18:04:11.813Z,74.78
2019-02-08T18:06:57.458Z,74.33
2019-02-08T18:09:43.722Z,74.47
2019-02-08T18:12:32.364Z,74.51
2019-02-08T18:15:19.194Z,74.46
2019-02-08T18:18:07.310Z,74.44
2019-02-08T18:20:55.565Z,74.56
2019-02-08T18:23:41.699Z,74.51
2019-02-08T18:26:27.526Z,74.40
2019-02-08T18:29:14.333Z,74.46
2019-02-08T18:32:00.332Z,74.79
2019-02-08T18:34:46.136Z,74.62
2019-02-08T18:37:31.566Z,74.48
2019-02-08T18:40:18.490Z,74.35
2019-02-08T18:43:04.494Z,74.27
2019-02-08T18:45:51.967Z,74.26
2019-02-08T18:48:39.235Z,74.52
2019-02-08T18:51:25.278Z,74.10
2019-02-08T18:54:16.440Z,74.35
2019-02-08T18:57:07.040Z,74.19
2019-02-08T18:59:53.307Z,74.33
2019-02-08T19:02:39.353Z,74.25
2019-02-08T19:05:25.494Z,74.33
2019-02-08T19:08:11.540Z,74.21
2019-02-08T19:10:57.551Z,74.32
2019-02-08T19:13:44.080Z,74.15
2019-02-08T19:16:30.240Z,74.10
2019-02-08T19:19:18.525Z,73.82
2019-02-08T19:22:04.558Z,73.86
2019-02-08T19:24:50.189Z,73.68
2019-02-08T19:27:35.981Z,73.79
2019-02-08T19:30:25.084Z,73.86
2019-02-08T19:33:10.732Z,73.96
2019-02-08T19:36:00.149Z,73.70
2019-02-08T19:38:48.657Z,73.91
2019-02-08T19:41:34.393Z,73.60
2019-02-08T19:44:21.873Z,73.90
2019-02-08T19:47:07.871Z,74.00
2019-02-08T19:49:53.893Z,74.00
2019-02-08T19:52:42.601Z,73.93
2019-02-08T19:55:29.318Z,73.71
2019-02-08T19:58:15.461Z,73.68
2019-02-08T20:01:01.504Z,73.42
2019-02-08T20:03:47.076Z,73.44
2019-02-08T20:06:32.773Z,73.54
2019-02-08T20:09:19.810Z,73.68
2019-02-08T20:12:05.703Z,73.46
2019-02-08T20:14:51.400Z,73.91
2019-02-08T20:17:37.450Z,73.89
2019-02-08T20:20:23.686Z,73.54
2019-02-08T20:23:09.227Z,74.05
2019-02-08T20:25:54.736Z,74.01
2019-02-08T20:28:42.743Z,74.38
2019-02-08T20:31:30.443Z,74.01
2019-02-08T20:34:16.361Z,74.08
2019-02-08T20:37:02.261Z,73.73
2019-02-08T20:39:49.807Z,73.63
2019-02-08T20:42:35.715Z,73.47
2019-02-08T20:45:23.307Z,73.86
2019-02-08T20:48:12.084Z,73.60
2019-02-08T20:50:58.137Z,73.75
2019-02-08T20:53:44.349Z,73.89
2019-02-08T20:56:32.333Z,73.82
2019-02-08T20:59:20.859Z,73.54
2019-02-08T21:02:06.671Z,73.03
2019-02-08T21:04:53.235Z,73.18
2019-02-08T21:07:39.762Z,73.44
2019-02-08T21:10:26.022Z,73.70
2019-02-08T21:13:12.335Z,73.76
2019-02-08T21:16:03.260Z,73.51
2019-02-08T21:18:49.034Z,73.46
2019-02-08T21:21:35.661Z,73.14
2019-02-08T21:24:21.271Z,73.27
2019-02-08T21:27:09.595Z,73.46
2019-02-08T21:29:55.684Z,73.33
2019-02-08T21:32:42.635Z,73.51
2019-02-08T21:35:28.699Z,73.11
2019-02-08T21:38:15.999Z,72.91
2019-02-08T21:41:01.831Z,73.02
2019-02-08T21:43:47.368Z,73.04
2019-02-08T21:46:33.276Z,72.89
2019-02-08T21:49:19.355Z,72.73
2019-02-08T21:52:05.158Z,73.08
2019-02-08T21:54:52.454Z,72.29
2019-02-08T21:57:38.374Z,72.60
2019-02-08T22:00:33.935Z,72.67
2019-02-08T23:29:55.365Z,70.56
2019-02-08T23:32:41.052Z,70.75
2019-02-08T23:35:27.253Z,70.98
2019-02-08T23:38:18.049Z,70.99
2019-02-08T23:41:07.139Z,71.05
2019-02-08T23:43:54.733Z,70.79
2019-02-08T23:46:42.007Z,72.39
2019-02-08T23:49:28.669Z,73.79
2019-02-08T23:52:14.369Z,73.05
2019-02-08T23:55:00.352Z,72.93
2019-02-08T23:57:45.925Z,73.49
